Time;durP1;ratioP1;P1;durP2;ratioP2;P2;SDS_P1;SDS_P2;PMS_P1;PMS_P2;Temp;Humidity;BMP_temperature;BMP_pressure;BME280_temperature;BME280_humidity;BME280_pressure;Samples;Min_cycle;Max_cycle;Signal;HPM_P1;HPM_P2
2024/04/04 00:00:30;;;;;;;;;;;;;;;;;;1050741;28;20355;-78
2024/04/04 00:01:00;;;;;;;;;;;;;;;;;;1051270;28;19913;-78
2024/04/04 00:01:30;;;;;;;;;;;;;;;;;;1048113;28;19893;-78
2024/04/04 00:02:00;;;;;;;;;;;;;;;;;;1045982;28;19920;-78
2024/04/04 00:02:31;;;;;;;;;;;;;;;;;;1045008;28;20335;-78
2024/04/04 00:03:01;;;;;;;;;;;;;;;;;;1054083;28;19936;-78
2024/04/04 00:03:31;;;;;;;;;;;;;;;;;;1051921;28;20379;-78
2024/04/04 00:04:01;;;;;;;;;;;;;;;;;;1052782;28;20386;-78
2024/04/04 00:04:32;;;;;;;;;;;;;;;;;;1056574;28;19912;-78
2024/04/04 00:05:02;;;;;;;;;;;;;;;;;;1053069;28;20383;-78
2024/04/04 00:05:32;;;;;;;;;;;;;;;;;;1051195;28;19961;-78
2024/04/04 00:06:02;;;;;;;;;;;;;;;;;;1055198;28;20002;-78
2024/04/04 00:06:33;;;;;;;;;;;;;;;;;;1055657;28;19920;-78
2024/04/04 00:07:03;;;;;;;;;;;;;;;;;;1058060;28;19959;-78
2024/04/04 00:07:33;;;;;;;;;;;;;;;;;;1051674;28;19923;-78
2024/04/04 00:08:03;;;;;;;;;;;;;;;;;;1052381;28;19951;-78
2024/04/04 00:08:34;;;;;;;;;;;;;;;;;;1050892;28;20307;-78
2024/04/04 00:09:04;;;;;;;;;;;;;;;;;;1052442;28;20299;-78
2024/04/04 00:09:34;;;;;;;;;;;;;;;;;;1050870;28;20280;-78
2024/04/04 00:10:04;;;;;;;;;;;;;;;;;;1046386;28;19913;-78
2024/04/04 00:10:35;;;;;;;;;;;;;;;;;;1049416;28;19920;-78
2024/04/04 00:11:05;;;;;;;;;;;;;;;;;;1050071;28;19912;-78
2024/04/04 00:11:35;;;;;;;;;;;;;;;;;;1050266;28;19968;-78
2024/04/04 00:12:05;;;;;;;;;;;;;;;;;;1055982;28;19915;-78
2024/04/04 00:12:36;;;;;;;;;;;;;;;;;;1056837;28;19951;-78
2024/04/04 00:13:06;;;;;;;;;;;;;;;;;;1057286;28;19964;-78
2024/04/04 00:13:36;;;;;;;;;;;;;;;;;;1055555;28;19942;-78
2024/04/04 00:14:07;;;;;;;;;;;;;;;;;;1052741;28;19961;-78
2024/04/04 00:14:37;;;;;;;;;;;;;;;;;;1046526;28;19949;-78
2024/04/04 00:15:07;;;;;;;;;;;;;;;;;;1048285;28;19916;-78
2024/04/04 00:15:37;;;;;;;;;;;;;;;;;;1048755;28;19976;-78
2024/04/04 00:16:07;;;;;;;;;;;;;;;;;;1054683;28;19912;-78
2024/04/04 00:16:38;;;;;;;;;;;;;;;;;;1052688;28;19916;-78
2024/04/04 00:17:08;;;;;;;;;;;;;;;;;;1055103;28;19912;-78
2024/04/04 00:17:38;;;;;;;;;;;;;;;;;;1057746;28;19912;-78
2024/04/04 00:18:08;;;;;;;;;;;;;;;;;;1054466;28;19998;-78
2024/04/04 00:18:39;;;;;;;;;;;;;;;;;;1048080;28;19912;-78
2024/04/04 00:19:10;;;;;;;;;;;;;;;;;;1046964;28;20423;-78
2024/04/04 00:19:40;;;;;;;;;;;;;;;;;;1050706;28;19916;-78
2024/04/04 00:20:14;;;;;;;;;;;;;;;;;;1049450;28;19916;-78
2024/04/04 00:20:45;;;;;;;;;;;;;;;;;;1051206;28;20384;-78
2024/04/04 00:21:15;;;;;;;;;;;;;;;;;;1053505;28;19912;-77
2024/04/04 00:21:45;;;;;;;;;;;;;;;;;;1048006;28;19956;-77
2024/04/04 00:22:15;;;;;;;;;;;;;;;;;;1050931;28;19979;-78
2024/04/04 00:22:45;;;;;;;;;;;;;;;;;;1053078;28;19912;-78
2024/04/04 00:23:16;;;;;;;;;;;;;;;;;;1053562;28;19949;-78
2024/04/04 00:23:46;;;;;;;;;;;;;;;;;;1051033;28;19893;-78
2024/04/04 00:24:16;;;;;;;;;;;;;;;;;;1052761;28;20000;-78
2024/04/04 00:24:47;;;;;;;;;;;;;;;;;;1049079;28;19913;-78
2024/04/04 00:25:17;;;;;;;;;;;;;;;;;;1048067;28;19924;-78
2024/04/04 00:25:48;;;;;;;;;;;;;;;;;;1052341;28;19919;-78
2024/04/04 00:26:20;;;;;;;;;;;;;;;;;;1049417;28;19897;-78
2024/04/04 00:26:50;;;;;;;;;;;;;;;;;;1055130;28;19900;-78
2024/04/04 00:27:20;;;;;;;;;;;;;;;;;;1050282;28;20410;-78
2024/04/04 00:27:50;;;;;;;;;;;;;;;;;;1049408;28;19920;-78
2024/04/04 00:28:21;;;;;;;;;;;;;;;;;;1052111;28;19912;-78
2024/04/04 00:28:51;;;;;;;;;;;;;;;;;;1057135;28;19923;-78
2024/04/04 00:29:21;;;;;;;;;;;;;;;;;;1051480;28;19912;-78
2024/04/04 00:29:51;;;;;;;;;;;;;;;;;;1046085;28;19923;-77
2024/04/04 00:30:22;;;;;;;;;;;;;;;;;;1045823;28;19952;-77
2024/04/04 00:30:52;;;;;;;;;;;;;;;;;;1046072;28;19913;-77
2024/04/04 00:31:22;;;;;;;;;;;;;;;;;;1055189;28;19988;-78
2024/04/04 00:31:52;;;;;;;;;;;;;;;;;;1047526;28;20360;-78
2024/04/04 00:32:23;;;;;;;;;;;;;;;;;;1048023;28;19913;-78
2024/04/04 00:32:54;;;;;;;;;;;;;;;;;;1047977;28;19912;-78
2024/04/04 00:33:24;;;;;;;;;;;;;;;;;;1043973;28;19913;-78
2024/04/04 00:33:56;;;;;;;;;;;;;;;;;;1048211;28;19999;-78
2024/04/04 00:34:27;;;;;;;;;;;;;;;;;;1049342;28;19893;-78
2024/04/04 00:34:57;;;;;;;;;;;;;;;;;;1053466;28;19907;-78
2024/04/04 00:35:27;;;;;;;;;;;;;;;;;;1048834;28;19990;-78
2024/04/04 00:35:57;;;;;;;;;;;;;;;;;;1044094;28;20296;-78
2024/04/04 00:36:28;;;;;;;;;;;;;;;;;;1047565;28;19934;-78
2024/04/04 00:36:58;;;;;;;;;;;;;;;;;;1049477;28;19913;-78
2024/04/04 00:37:28;;;;;;;;;;;;;;;;;;1049450;28;19917;-78
2024/04/04 00:37:59;;;;;;;;;;;;;;;;;;1053367;28;19913;-78
2024/04/04 00:38:29;;;;;;;;;;;;;;;;;;1046696;28;19918;-78
2024/04/04 00:38:59;;;;;;;;;;;;;;;;;;1042184;28;19913;-78
2024/04/04 00:39:29;;;;;;;;;;;;;;;;;;1056773;28;19951;-78
2024/04/04 00:40:00;;;;;;;;;;;;;;;;;;1056740;28;20454;-78
2024/04/04 00:40:30;;;;;;;;;;;;;;;;;;1058106;28;19916;-78
2024/04/04 00:41:00;;;;;;;;;;;;;;;;;;1053786;28;19912;-78
2024/04/04 00:41:30;;;;;;;;;;;;;;;;;;1054240;28;19909;-78
2024/04/04 00:42:01;;;;;;;;;;;;;;;;;;1055826;28;19922;-78
2024/04/04 00:42:31;;;;;;;;;;;;;;;;;;1047917;28;20395;-78
2024/04/04 00:43:01;;;;;;;;;;;;;;;;;;1048661;28;20387;-78
2024/04/04 00:43:32;;;;;;;;;;;;;;;;;;1052907;28;19916;-78
2024/04/04 00:44:02;;;;;;;;;;;;;;;;;;1056517;28;19959;-78
2024/04/04 00:44:32;;;;;;;;;;;;;;;;;;1055048;28;19954;-78
2024/04/04 00:45:03;;;;;;;;;;;;;;;;;;1058935;28;19916;-78
2024/04/04 00:45:33;;;;;;;;;;;;;;;;;;1054019;28;19896;-78
2024/04/04 00:46:03;;;;;;;;;;;;;;;;;;1051509;28;19912;-78
2024/04/04 00:46:33;;;;;;;;;;;;;;;;;;1053385;28;19912;-78
2024/04/04 00:47:04;;;;;;;;;;;;;;;;;;1060275;28;19892;-78
2024/04/04 00:47:34;;;;;;;;;;;;;;;;;;1055122;28;19912;-78
2024/04/04 00:48:04;;;;;;;;;;;;;;;;;;1053319;28;19936;-78
2024/04/04 00:48:34;;;;;;;;;;;;;;;;;;1055137;28;20128;-78
2024/04/04 00:49:05;;;;;;;;;;;;;;;;;;1052830;28;20332;-78
2024/04/04 00:49:35;;;;;;;;;;;;;;;;;;1053410;28;19933;-78
2024/04/04 00:50:05;;;;;;;;;;;;;;;;;;1056218;28;19947;-78
2024/04/04 00:50:35;;;;;;;;;;;;;;;;;;1054423;28;20006;-78
2024/04/04 00:51:06;;;;;;;;;;;;;;;;;;1055828;28;20412;-78
2024/04/04 00:51:36;;;;;;;;;;;;;;;;;;1050006;28;19918;-78
2024/04/04 00:52:09;;;;;;;;;;;;;;;;;;1051228;28;19954;-78
2024/04/04 00:52:39;;;;;;;;;;;;;;;;;;1052740;28;20475;-78
2024/04/04 00:53:09;;;;;;;;;;;;;;;;;;1052088;28;19927;-78
2024/04/04 00:53:40;;;;;;;;;;;;;;;;;;1053229;28;20622;-78
2024/04/04 00:54:10;;;;;;;;;;;;;;;;;;1057217;28;19932;-78
2024/04/04 00:54:40;;;;;;;;;;;;;;;;;;1057935;28;19934;-78
2024/04/04 00:55:10;;;;;;;;;;;;;;;;;;1054167;28;20003;-78
2024/04/04 00:55:41;;;;;;;;;;;;;;;;;;1056451;28;19908;-78
2024/04/04 00:56:11;;;;;;;;;;;;;;;;;;1054412;28;20314;-78
2024/04/04 00:56:41;;;;;;;;;;;;;;;;;;1050963;28;19955;-78
2024/04/04 00:57:12;;;;;;;;;;;;;;;;;;1048801;28;20083;-78
2024/04/04 00:57:42;;;;;;;;;;;;;;;;;;1047530;28;19916;-78
2024/04/04 00:58:12;;;;;;;;;;;;;;;;;;1047992;28;19928;-78
2024/04/04 00:58:42;;;;;;;;;;;;;;;;;;1044805;28;19921;-78
2024/04/04 00:59:13;;;;;;;;;;;;;;;;;;1042867;28;19939;-78
2024/04/04 00:59:43;;;;;;;;;;;;;;;;;;1047903;28;20413;-78
2024/04/04 01:00:13;;;;;;;;;;;;;;;;;;1049683;28;19955;-77
2024/04/04 01:00:43;;;;;;;;;;;;;;;;;;1052516;28;19908;-77
2024/04/04 01:01:14;;;;;;;;;;;;;;;;;;1053152;28;19965;-77
2024/04/04 01:01:44;;;;;;;;;;;;;;;;;;1053285;28;19916;-77
2024/04/04 01:02:14;;;;;;;;;;;;;;;;;;1056416;28;19912;-78
2024/04/04 01:02:44;;;;;;;;;;;;;;;;;;1058298;28;19912;-78
2024/04/04 01:03:15;;;;;;;;;;;;;;;;;;1054677;28;19899;-78
2024/04/04 01:03:45;;;;;;;;;;;;;;;;;;1056386;28;19919;-78
2024/04/04 01:04:15;;;;;;;;;;;;;;;;;;1053667;28;19912;-78
2024/04/04 01:04:45;;;;;;;;;;;;;;;;;;1053241;28;20537;-78
2024/04/04 01:05:16;;;;;;;;;;;;;;;;;;1052756;28;20140;-78
2024/04/04 01:05:46;;;;;;;;;;;;;;;;;;1051861;28;19923;-78
2024/04/04 01:06:16;;;;;;;;;;;;;;;;;;1051013;28;19944;-78
2024/04/04 01:06:46;;;;;;;;;;;;;;;;;;1054320;28;19919;-78
2024/04/04 01:07:17;;;;;;;;;;;;;;;;;;1053453;28;19916;-78
2024/04/04 01:07:47;;;;;;;;;;;;;;;;;;1051214;28;19962;-78
2024/04/04 01:08:18;;;;;;;;;;;;;;;;;;1051528;28;20332;-78
2024/04/04 01:08:48;;;;;;;;;;;;;;;;;;1051711;28;20426;-78
2024/04/04 01:09:19;;;;;;;;;;;;;;;;;;1057217;28;19912;-78
2024/04/04 01:09:49;;;;;;;;;;;;;;;;;;1062428;28;19922;-78
2024/04/04 01:10:19;;;;;;;;;;;;;;;;;;1061011;28;19957;-78
2024/04/04 01:10:49;;;;;;;;;;;;;;;;;;1056705;28;20002;-78
2024/04/04 01:11:20;;;;;;;;;;;;;;;;;;1056279;28;19922;-78
2024/04/04 01:11:50;;;;;;;;;;;;;;;;;;1052571;28;19912;-78
2024/04/04 01:12:20;;;;;;;;;;;;;;;;;;1053562;28;19984;-78
2024/04/04 01:12:51;;;;;;;;;;;;;;;;;;1056539;28;19912;-78
2024/04/04 01:13:21;;;;;;;;;;;;;;;;;;1052162;28;19893;-78
2024/04/04 01:13:51;;;;;;;;;;;;;;;;;;1053419;28;19913;-78
2024/04/04 01:14:22;;;;;;;;;;;;;;;;;;1056100;28;19892;-78
2024/04/04 01:14:52;;;;;;;;;;;;;;;;;;1052500;28;19912;-78
2024/04/04 01:15:22;;;;;;;;;;;;;;;;;;1051202;28;19974;-78
2024/04/04 01:15:52;;;;;;;;;;;;;;;;;;1047344;28;20335;-78
2024/04/04 01:16:23;;;;;;;;;;;;;;;;;;1049706;28;19921;-78
2024/04/04 01:16:53;;;;;;;;;;;;;;;;;;1055324;28;19923;-78
2024/04/04 01:17:24;;;;;;;;;;;;;;;;;;1050041;28;20285;-78
2024/04/04 01:17:58;;;;;;;;;;;;;;;;;;1053580;28;19913;-78
2024/04/04 01:18:28;;;;;;;;;;;;;;;;;;1053584;28;20387;-78
2024/04/04 01:18:58;;;;;;;;;;;;;;;;;;1054378;28;19912;-78
2024/04/04 01:19:28;;;;;;;;;;;;;;;;;;1050357;28;20304;-78
2024/04/04 01:19:59;;;;;;;;;;;;;;;;;;1045855;28;19912;-78
2024/04/04 01:20:29;;;;;;;;;;;;;;;;;;1039790;28;19917;-78
2024/04/04 01:20:59;;;;;;;;;;;;;;;;;;1044203;28;19920;-78
2024/04/04 01:21:29;;;;;;;;;;;;;;;;;;1050825;28;19920;-78
2024/04/04 01:22:00;;;;;;;;;;;;;;;;;;1051518;28;20031;-78
2024/04/04 01:22:30;;;;;;;;;;;;;;;;;;1053227;28;19919;-78
2024/04/04 01:23:00;;;;;;;;;;;;;;;;;;1057270;28;19912;-78
2024/04/04 01:23:30;;;;;;;;;;;;;;;;;;1056444;28;19915;-78
2024/04/04 01:24:01;;;;;;;;;;;;;;;;;;1050130;28;19912;-78
2024/04/04 01:24:31;;;;;;;;;;;;;;;;;;1048238;28;19934;-78
2024/04/04 01:25:01;;;;;;;;;;;;;;;;;;1047192;28;19889;-78
2024/04/04 01:25:31;;;;;;;;;;;;;;;;;;1043101;28;20008;-78
2024/04/04 01:26:02;;;;;;;;;;;;;;;;;;1050661;28;20011;-78
2024/04/04 01:26:32;;;;;;;;;;;;;;;;;;1048789;28;19937;-78
2024/04/04 01:27:02;;;;;;;;;;;;;;;;;;1053258;28;19949;-78
2024/04/04 01:27:33;;;;;;;;;;;;;;;;;;1049014;28;19912;-78
2024/04/04 01:28:03;;;;;;;;;;;;;;;;;;1052477;28;20799;-79
2024/04/04 01:28:33;;;;;;;;;;;;;;;;;;1045450;28;19972;-78
2024/04/04 01:29:03;;;;;;;;;;;;;;;;;;1047956;28;19924;-78
2024/04/04 01:29:33;;;;;;;;;;;;;;;;;;1045396;28;20415;-78
2024/04/04 01:30:04;;;;;;;;;;;;;;;;;;1047351;28;20360;-78
2024/04/04 01:30:34;;;;;;;;;;;;;;;;;;1055320;28;19896;-78
2024/04/04 01:31:05;;;;;;;;;;;;;;;;;;1055536;28;20007;-78
2024/04/04 01:31:35;;;;;;;;;;;;;;;;;;1052519;28;19913;-78
2024/04/04 01:32:05;;;;;;;;;;;;;;;;;;1053168;28;19932;-78
2024/04/04 01:32:35;;;;;;;;;;;;;;;;;;1053465;28;19919;-78
2024/04/04 01:33:06;;;;;;;;;;;;;;;;;;1048954;28;20344;-78
2024/04/04 01:33:36;;;;;;;;;;;;;;;;;;1047671;28;19909;-78
2024/04/04 01:34:06;;;;;;;;;;;;;;;;;;1047080;28;20359;-78
2024/04/04 01:34:36;;;;;;;;;;;;;;;;;;1052461;28;19975;-78
2024/04/04 01:35:07;;;;;;;;;;;;;;;;;;1048975;28;19951;-78
2024/04/04 01:35:37;;;;;;;;;;;;;;;;;;1050314;28;19935;-78
2024/04/04 01:36:07;;;;;;;;;;;;;;;;;;1051228;28;19916;-78
2024/04/04 01:36:37;;;;;;;;;;;;;;;;;;1051709;28;19913;-78
2024/04/04 01:37:08;;;;;;;;;;;;;;;;;;1051107;28;20336;-78
2024/04/04 01:37:38;;;;;;;;;;;;;;;;;;1056408;28;19965;-78
2024/04/04 01:38:08;;;;;;;;;;;;;;;;;;1057977;28;19912;-78
2024/04/04 01:38:39;;;;;;;;;;;;;;;;;;1052536;28;19919;-78
2024/04/04 01:39:09;;;;;;;;;;;;;;;;;;1055506;23;20368;-77
2024/04/04 01:39:39;;;;;;;;;;;;;;;;;;1052046;28;19911;-78
2024/04/04 01:40:09;;;;;;;;;;;;;;;;;;1052423;28;19920;-79
2024/04/04 01:40:40;;;;;;;;;;;;;;;;;;1045598;28;19916;-78
2024/04/04 01:41:10;;;;;;;;;;;;;;;;;;1048363;23;19923;-78
2024/04/04 01:41:43;;;;;;;;;;;;;;;;;;1047290;28;19943;-78
2024/04/04 01:42:13;;;;;;;;;;;;;;;;;;1042622;28;19912;-78
2024/04/04 01:42:44;;;;;;;;;;;;;;;;;;1048737;28;19920;-79
2024/04/04 01:43:14;;;;;;;;;;;;;;;;;;1044753;28;19990;-78
2024/04/04 01:43:44;;;;;;;;;;;;;;;;;;1046237;28;20377;-78
2024/04/04 01:44:15;;;;;;;;;;;;;;;;;;1053043;28;20331;-78
2024/04/04 01:44:45;;;;;;;;;;;;;;;;;;1048395;28;19904;-78
2024/04/04 01:45:15;;;;;;;;;;;;;;;;;;1049560;28;20427;-78
2024/04/04 01:45:45;;;;;;;;;;;;;;;;;;1045332;28;20582;-78
2024/04/04 01:46:16;;;;;;;;;;;;;;;;;;1047944;28;20341;-78
2024/04/04 01:46:46;;;;;;;;;;;;;;;;;;1052258;28;20055;-78
2024/04/04 01:47:16;;;;;;;;;;;;;;;;;;1050329;28;19912;-78
2024/04/04 01:47:46;;;;;;;;;;;;;;;;;;1055219;28;19957;-78
2024/04/04 01:48:17;;;;;;;;;;;;;;;;;;1052933;28;19978;-78
2024/04/04 01:48:47;;;;;;;;;;;;;;;;;;1045860;28;19920;-78
2024/04/04 01:49:18;;;;;;;;;;;;;;;;;;1047133;28;20015;-78
2024/04/04 01:49:48;;;;;;;;;;;;;;;;;;1046107;28;19903;-78
2024/04/04 01:50:18;;;;;;;;;;;;;;;;;;1048408;28;19916;-78
2024/04/04 01:50:48;;;;;;;;;;;;;;;;;;1048800;28;19920;-78
2024/04/04 01:51:19;;;;;;;;;;;;;;;;;;1050595;28;19920;-78
2024/04/04 01:51:49;;;;;;;;;;;;;;;;;;1049257;28;19913;-78
2024/04/04 01:52:19;;;;;;;;;;;;;;;;;;1047939;28;19921;-79
2024/04/04 01:52:50;;;;;;;;;;;;;;;;;;1048488;28;20540;-79
2024/04/04 01:53:20;;;;;;;;;;;;;;;;;;1047659;28;20079;-79
2024/04/04 01:53:50;;;;;;;;;;;;;;;;;;1051320;28;19920;-79
2024/04/04 01:54:20;;;;;;;;;;;;;;;;;;1049682;28;20012;-79
2024/04/04 01:54:51;;;;;;;;;;;;;;;;;;1042905;28;19913;-79
2024/04/04 01:55:21;;;;;;;;;;;;;;;;;;1043655;28;19952;-79
2024/04/04 01:55:51;;;;;;;;;;;;;;;;;;1051655;28;19987;-79
2024/04/04 01:56:21;;;;;;;;;;;;;;;;;;1048644;28;19968;-79
2024/04/04 01:56:52;;;;;;;;;;;;;;;;;;1053245;28;19916;-79
2024/04/04 01:57:22;;;;;;;;;;;;;;;;;;1054179;28;19916;-79
2024/04/04 01:57:52;;;;;;;;;;;;;;;;;;1053613;28;19963;-79
2024/04/04 01:58:23;;;;;;;;;;;;;;;;;;1050231;28;20316;-78
2024/04/04 01:58:53;;;;;;;;;;;;;;;;;;1051579;28;19998;-78
2024/04/04 01:59:23;;;;;;;;;;;;;;;;;;1053541;28;19916;-78
2024/04/04 01:59:53;;;;;;;;;;;;;;;;;;1055979;28;19977;-78
2024/04/04 02:00:24;;;;;;;;;;;;;;;;;;1057363;28;19920;-78
2024/04/04 02:00:54;;;;;;;;;;;;;;;;;;1057296;28;19942;-78
2024/04/04 02:01:24;;;;;;;;;;;;;;;;;;1049397;28;19912;-78
2024/04/04 02:01:54;;;;;;;;;;;;;;;;;;1050718;28;19951;-78
2024/04/04 02:02:25;;;;;;;;;;;;;;;;;;1049534;28;19935;-78
2024/04/04 02:02:55;;;;;;;;;;;;;;;;;;1046709;28;19926;-78
2024/04/04 02:03:25;;;;;;;;;;;;;;;;;;1046613;28;19913;-78
2024/04/04 02:03:55;;;;;;;;;;;;;;;;;;1051121;28;19913;-79
2024/04/04 02:04:26;;;;;;;;;;;;;;;;;;1049555;28;20497;-78
2024/04/04 02:04:56;;;;;;;;;;;;;;;;;;1048211;28;19939;-78
2024/04/04 02:05:26;;;;;;;;;;;;;;;;;;1047871;28;19922;-78
2024/04/04 02:05:56;;;;;;;;;;;;;;;;;;1046724;28;20423;-78
2024/04/04 02:06:26;;;;;;;;;;;;;;;;;;1051844;28;19903;-78
2024/04/04 02:06:57;;;;;;;;;;;;;;;;;;1049943;28;19993;-78
2024/04/04 02:07:27;;;;;;;;;;;;;;;;;;1046310;28;20518;-78
2024/04/04 02:07:57;;;;;;;;;;;;;;;;;;1052252;28;19913;-79
2024/04/04 02:08:28;;;;;;;;;;;;;;;;;;1053146;28;19912;-79
2024/04/04 02:08:58;;;;;;;;;;;;;;;;;;1049588;28;20006;-79
2024/04/04 02:09:28;;;;;;;;;;;;;;;;;;1047795;28;20385;-78
2024/04/04 02:09:59;;;;;;;;;;;;;;;;;;1051379;28;19917;-79
2024/04/04 02:10:30;;;;;;;;;;;;;;;;;;1050014;28;19931;-79
2024/04/04 02:11:00;;;;;;;;;;;;;;;;;;1048450;28;20420;-78
2024/04/04 02:11:30;;;;;;;;;;;;;;;;;;1055964;28;19900;-79
2024/04/04 02:12:00;;;;;;;;;;;;;;;;;;1057346;28;19947;-79
2024/04/04 02:12:31;;;;;;;;;;;;;;;;;;1056870;28;19961;-79
2024/04/04 02:13:02;;;;;;;;;;;;;;;;;;1052567;28;19913;-79
2024/04/04 02:13:32;;;;;;;;;;;;;;;;;;1040535;28;20493;-79
2024/04/04 02:14:03;;;;;;;;;;;;;;;;;;1047014;28;19985;-79
2024/04/04 02:14:33;;;;;;;;;;;;;;;;;;1051364;28;19978;-79
2024/04/04 02:15:04;;;;;;;;;;;;;;;;;;1051594;28;20486;-79
2024/04/04 02:15:34;;;;;;;;;;;;;;;;;;1048445;28;20368;-79
2024/04/04 02:16:04;;;;;;;;;;;;;;;;;;1051187;28;19913;-79
2024/04/04 02:16:35;;;;;;;;;;;;;;;;;;1048854;28;19920;-79
2024/04/04 02:17:05;;;;;;;;;;;;;;;;;;1055759;28;19980;-79
2024/04/04 02:17:36;;;;;;;;;;;;;;;;;;1052575;28;19920;-78
2024/04/04 02:18:06;;;;;;;;;;;;;;;;;;1055303;28;19927;-79
2024/04/04 02:18:37;;;;;;;;;;;;;;;;;;1049883;28;19966;-79
2024/04/04 02:19:08;;;;;;;;;;;;;;;;;;1048861;28;20387;-78
2024/04/04 02:19:39;;;;;;;;;;;;;;;;;;1051983;28;19968;-78
2024/04/04 02:20:12;;;;;;;;;;;;;;;;;;1048005;28;19978;-78
2024/04/04 02:20:42;;;;;;;;;;;;;;;;;;1051306;28;19916;-78
2024/04/04 02:21:12;;;;;;;;;;;;;;;;;;1056929;28;19915;-79
2024/04/04 02:21:43;;;;;;;;;;;;;;;;;;1051872;28;19930;-78
2024/04/04 02:22:13;;;;;;;;;;;;;;;;;;1051204;28;19916;-78
2024/04/04 02:22:43;;;;;;;;;;;;;;;;;;1047579;28;20456;-78
2024/04/04 02:23:13;;;;;;;;;;;;;;;;;;1040256;28;19913;-78
2024/04/04 02:23:44;;;;;;;;;;;;;;;;;;1048988;28;19944;-78
2024/04/04 02:24:14;;;;;;;;;;;;;;;;;;1048493;28;19943;-78
2024/04/04 02:24:44;;;;;;;;;;;;;;;;;;1053223;28;19912;-78
2024/04/04 04:40:18;;;;;;;;;;;;;;;;;;864383;22;20457;-76
2024/04/04 04:43:44;;;;;;;;;;;;;;;;;;1218188;22;19908;-74
2024/04/04 04:53:58;;;;;;;;;;;;;;;;;;1119662;23;20017;-75
2024/04/04 04:55:32;;;;;;;;;;;;;;;;;;1093060;23;19931;-75
2024/04/04 04:58:43;;;;;;;;;;;;;;;;;;1225886;22;19922;-75
2024/04/04 04:59:14;;;;;;;;;;;;;;;;;;1049870;28;19927;-75
2024/04/04 05:07:28;;;;;;;;;;;;;;;;;;1078923;22;19935;-74
2024/04/04 05:09:59;;;;;;;;;;;;;;;;;;1067650;22;20313;-75
2024/04/04 05:12:05;;;;;;;;;;;;;;;;;;1145333;23;19963;-74
2024/04/04 05:12:35;;;;;;;;;;;;;;;;;;1038053;28;19921;-75
2024/04/04 05:20:36;;;;;;;;;;;;;;;;;;995243;23;20383;-73
2024/04/04 05:21:23;;;;;;;;;;;;;;;;;;1083697;23;20007;-75
2024/04/04 05:22:37;;;;;;;;;;;;;;;;;;1078732;23;20382;-77
2024/04/04 05:24:47;;;;;;;;;;;;;;;;;;1044236;28;20777;-76
2024/04/04 05:27:17;;;;;;;;;;;;;;;;;;1175556;23;20239;-76
2024/04/04 05:31:16;;;;;;;;;;;;;;;;;;1167162;22;20142;-75
2024/04/04 05:32:01;;;;;;;;;;;;;;;;;;1054865;23;19929;-78
2024/04/04 05:32:47;;;;;;;;;;;;;;;;;;1001726;26;19962;-74
2024/04/04 05:37:18;;;;;;;;;;;;;;;;;;1023106;22;19963;-80
2024/04/04 05:37:50;;;;;;;;;;;;;;;;;;1049162;28;19924;-79
2024/04/04 05:38:20;;;;;;;;;;;;;;;;;;1051633;28;19912;-79
2024/04/04 05:38:51;;;;;;;;;;;;;;;;;;1049051;28;19932;-80
2024/04/04 05:39:24;;;;;;;;;;;;;;;;;;1053026;28;19916;-81
2024/04/04 05:39:55;;;;;;;;;;;;;;;;;;1084862;22;19937;-80
2024/04/04 05:40:25;;;;;;;;;;;;;;;;;;1053146;28;19994;-80
2024/04/04 05:40:55;;;;;;;;;;;;;;;;;;1049833;28;19913;-80
2024/04/04 05:41:25;;;;;;;;;;;;;;;;;;1043598;28;19917;-79
2024/04/04 05:41:56;;;;;;;;;;;;;;;;;;1048599;28;19920;-80
2024/04/04 05:42:26;;;;;;;;;;;;;;;;;;1046012;28;20010;-80
2024/04/04 05:42:56;;;;;;;;;;;;;;;;;;1042742;28;19913;-81
2024/04/04 05:43:27;;;;;;;;;;;;;;;;;;1039064;28;20183;-81
2024/04/04 05:43:57;;;;;;;;;;;;;;;;;;1046158;28;19924;-80
2024/04/04 05:44:27;;;;;;;;;;;;;;;;;;1050175;28;19912;-81
2024/04/04 05:44:58;;;;;;;;;;;;;;;;;;1049616;28;20006;-81
2024/04/04 05:47:24;;;;;;;;;;;;;;;;;;917140;22;20308;-75
2024/04/04 05:48:05;;;;;;;;;;;;;;;;;;1022222;23;19982;-76
2024/04/04 05:48:39;;;;;;;;;;;;;;;;;;1053874;27;19930;-76
2024/04/04 05:49:50;;;;;;;;;;;;;;;;;;1049061;27;20102;-75
2024/04/04 05:50:20;;;;;;;;;;;;;;;;;;1052487;27;20425;-75
2024/04/04 05:50:52;;;;;;;;;;;;;;;;;;1052948;27;20123;-74
2024/04/04 05:51:22;;;;;;;;;;;;;;;;;;1055446;27;19915;-73
2024/04/04 05:54:36;;;;;;;;;;;;;;;;;;1250662;22;19928;-88
2024/04/04 05:55:40;;;;;;;;;;;;;;;;;;1057763;22;21085;-75
2024/04/04 05:56:14;;;;;;;;;;;;;;;;;;1060909;27;19963;-75
2024/04/04 05:56:44;;;;;;;;;;;;;;;;;;1060794;27;20404;-74
2024/04/04 05:57:15;;;;;;;;;;;;;;;;;;1056092;27;20046;-75
2024/04/04 05:57:48;;;;;;;;;;;;;;;;;;1050579;28;20485;-76
2024/04/04 05:59:03;;;;;;;;;;;;;;;;;;1088756;22;19933;-74
2024/04/04 05:59:33;;;;;;;;;;;;;;;;;;1044904;28;20570;-74
2024/04/04 06:00:04;;;;;;;;;;;;;;;;;;1047730;28;19916;-73
2024/04/04 06:00:34;;;;;;;;;;;;;;;;;;1046065;28;19924;-76
2024/04/04 06:01:41;;;;;;;;;;;;;;;;;;1040995;28;19929;-75
2024/04/04 06:03:02;;;;;;;;;;;;;;;;;;1034171;28;19939;-74
2024/04/04 06:03:39;;;;;;;;;;;;;;;;;;1034276;28;19932;-74
2024/04/04 06:04:09;;;;;;;;;;;;;;;;;;1038346;28;20324;-76
2024/04/04 06:05:01;;;;;;;;;;;;;;;;;;1082424;23;19964;-74
2024/04/04 06:05:32;;;;;;;;;;;;;;;;;;1035803;28;20333;-75
2024/04/04 06:08:34;;;;;;;;;;;;;;;;;;1037934;28;20023;-74
2024/04/04 06:09:05;;;;;;;;;;;;;;;;;;1041880;28;19920;-74
2024/04/04 06:09:36;;;;;;;;;;;;;;;;;;1044467;28;19920;-76
2024/04/04 06:10:09;;;;;;;;;;;;;;;;;;1043331;28;20004;-74
2024/04/04 06:11:30;;;;;;;;;;;;;;;;;;1026887;28;19948;-74
2024/04/04 06:12:03;;;;;;;;;;;;;;;;;;1021538;28;19968;-74
2024/04/04 06:12:35;;;;;;;;;;;;;;;;;;1028729;28;19924;-75
2024/04/04 06:13:05;;;;;;;;;;;;;;;;;;1021692;28;21041;-75
2024/04/04 06:13:38;;;;;;;;;;;;;;;;;;1009427;28;20002;-75
2024/04/04 06:14:09;;;;;;;;;;;;;;;;;;1033247;28;19918;-74
2024/04/04 06:14:39;;;;;;;;;;;;;;;;;;1034578;28;20023;-74
2024/04/04 06:15:47;;;;;;;;;;;;;;;;;;1027194;28;20387;-74
2024/04/04 06:17:30;;;;;;;;;;;;;;;;;;1032537;28;19932;-75
2024/04/04 06:18:16;;;;;;;;;;;;;;;;;;1020770;23;20578;-75
2024/04/04 06:22:01;;;;;;;;;;;;;;;;;;1047069;28;19963;-75
2024/04/04 06:22:37;;;;;;;;;;;;;;;;;;1058491;23;19919;-74
2024/04/04 06:23:16;;;;;;;;;;;;;;;;;;1044938;28;19928;-76
2024/04/04 06:25:21;;;;;;;;;;;;;;;;;;1043852;28;19927;-75
2024/04/04 06:25:52;;;;;;;;;;;;;;;;;;1078479;22;19939;-75
2024/04/04 06:26:28;;;;;;;;;;;;;;;;;;1045486;28;19970;-75
2024/04/04 06:26:59;;;;;;;;;;;;;;;;;;1041208;28;19947;-75
2024/04/04 06:27:30;;;;;;;;;;;;;;;;;;1037890;28;19928;-75
2024/04/04 06:28:01;;;;;;;;;;;;;;;;;;1040730;28;19920;-77
2024/04/04 06:28:36;;;;;;;;;;;;;;;;;;1040752;28;19943;-77
2024/04/04 06:29:08;;;;;;;;;;;;;;;;;;1037403;28;20531;-74
2024/04/04 06:29:41;;;;;;;;;;;;;;;;;;1138437;22;19955;-75
2024/04/04 06:30:12;;;;;;;;;;;;;;;;;;1020981;28;19924;-75
2024/04/04 06:30:44;;;;;;;;;;;;;;;;;;1043542;28;19916;-75
2024/04/04 06:31:16;;;;;;;;;;;;;;;;;;1042592;28;20043;-74
2024/04/04 06:31:47;;;;;;;;;;;;;;;;;;1038694;28;19943;-74
2024/04/04 06:33:28;;;;;;;;;;;;;;;;;;1041936;28;20078;-75
2024/04/04 06:34:03;;;;;;;;;;;;;;;;;;1038857;28;20351;-75
2024/04/04 06:34:36;;;;;;;;;;;;;;;;;;1042737;28;19978;-74
2024/04/04 06:35:08;;;;;;;;;;;;;;;;;;1047154;28;19916;-75
2024/04/04 06:39:08;;;;;;;;;;;;;;;;;;1155327;22;20021;-76
2024/04/04 06:42:53;;;;;;;;;;;;;;;;;;1047087;28;19932;-74
2024/04/04 06:46:44;;;;;;;;;;;;;;;;;;1111334;22;19983;-75
2024/04/04 06:47:39;;;;;;;;;;;;;;;;;;1194156;22;20213;-78
2024/04/04 06:48:10;;;;;;;;;;;;;;;;;;1051871;28;20019;-78
2024/04/04 06:48:41;;;;;;;;;;;;;;;;;;1055503;28;19966;-78
2024/04/04 06:49:11;;;;;;;;;;;;;;;;;;1050838;28;19929;-78
2024/04/04 06:49:42;;;;;;;;;;;;;;;;;;1045888;28;19967;-77
2024/04/04 06:50:12;;;;;;;;;;;;;;;;;;1046768;28;19912;-80
2024/04/04 06:50:42;;;;;;;;;;;;;;;;;;1048657;28;20379;-78
2024/04/04 06:51:13;;;;;;;;;;;;;;;;;;1050359;28;19912;-77
2024/04/04 06:51:43;;;;;;;;;;;;;;;;;;1046848;28;19912;-80
2024/04/04 06:52:13;;;;;;;;;;;;;;;;;;1049890;28;19920;-78
2024/04/04 06:52:43;;;;;;;;;;;;;;;;;;1051906;28;19916;-79
2024/04/04 06:53:14;;;;;;;;;;;;;;;;;;1047450;28;19916;-78
2024/04/04 06:53:44;;;;;;;;;;;;;;;;;;1035561;28;20053;-77
2024/04/04 06:54:14;;;;;;;;;;;;;;;;;;1048769;28;20010;-77
2024/04/04 06:54:44;;;;;;;;;;;;;;;;;;1049930;28;20324;-78
2024/04/04 06:55:15;;;;;;;;;;;;;;;;;;1051812;28;20283;-77
2024/04/04 06:55:45;;;;;;;;;;;;;;;;;;1049430;28;19912;-78
2024/04/04 06:56:15;;;;;;;;;;;;;;;;;;1052778;28;19946;-78
2024/04/04 06:56:45;;;;;;;;;;;;;;;;;;1052697;28;19912;-78
2024/04/04 06:57:16;;;;;;;;;;;;;;;;;;1056762;28;19919;-77
2024/04/04 06:57:46;;;;;;;;;;;;;;;;;;1058419;28;19968;-76
2024/04/04 06:58:16;;;;;;;;;;;;;;;;;;1055096;28;19958;-77
2024/04/04 06:58:46;;;;;;;;;;;;;;;;;;1052814;28;20058;-80
2024/04/04 06:59:17;;;;;;;;;;;;;;;;;;1053545;28;20533;-78
2024/04/04 06:59:47;;;;;;;;;;;;;;;;;;1057947;28;19977;-79
2024/04/04 07:00:18;;;;;;;;;;;;;;;;;;1052134;28;19998;-78
2024/04/04 07:00:48;;;;;;;;;;;;;;;;;;1051506;28;20299;-78
2024/04/04 07:01:19;;;;;;;;;;;;;;;;;;1051496;28;19916;-80
2024/04/04 07:01:49;;;;;;;;;;;;;;;;;;1048135;28;19916;-80
2024/04/04 07:02:19;;;;;;;;;;;;;;;;;;1045869;28;19919;-79